Airfield :
LOGIN :

Register | Disclaimer

   EN    FR    IT 

 










Legend :    VFR   Marginal VFR   IFR   Intensive IFR   Very Intensive IFR
Visi :
Ceiling :
>= 8 km
>= 3000ft
5 to 8 km
1000 to 3000 ft
1500m to 5 km
500 to 1000 ft
800 to 1500m
200 to 500 ft
< 800m
< 200 ft
Symbols :   Thunderstorms  Fog  Heavy snow  Heavy precipitations  Wind > 20 kt
SIGMETs :     Misc.  Thunderstorms  Icing  Turbulence  Mountain Waves  Volcanic Ashes






- Airport Elevation : 609 ft
- IATA code : BJZ


LEBZ - Badajoz

CURRENT METAR :
  • 281530Z 28009KT 230V330 CAVOK 26/14 Q1021

EXPIRED METARs :
  • 281500Z 28010KT 250V320 CAVOK 26/14 Q1021
  • 281430Z 27009KT 220V310 CAVOK 26/14 Q1021
  • 281400Z 28010KT 240V320 CAVOK 25/15 Q1021
  • 281330Z 27007KT 230V320 9999 FEW022 25/17 Q1021
  • 281300Z 27006KT 200V320 9999 FEW021 24/18 Q1022

TAF TAF LEBZ
Valid from the 28 at 15:00 until the 29 at 15:00 UTC


281400Z 2815/2915 28009KT CAVOK TX28/2915Z TN12/2906Z



MET'MAP, your aeronautical weather chart ! - Copyright ORBIFLY December 2007 - Disclaimer

ORBIFLY MET'MAP TEAM :

Programming & Development : Alexandra Zaïnal
Concept & original design : Baudouin d'Aumeries
Assistance for programming : Marc-Olivier Méhu
Technical & hardware support : Manuel Goepfert

Contact : metmap@orbifly.com




SOURCES & CREDITS :

   NOAA